Time;durP1;ratioP1;P1;durP2;ratioP2;P2;SDS_P1;SDS_P2;PMS_P1;PMS_P2;Temp;Humidity;BMP_temperature;BMP_pressure;BME280_temperature;BME280_humidity;BME280_pressure;Samples;Min_cycle;Max_cycle;Signal;HPM_P1;HPM_P2
2021/08/15 00:01:14;;;;;;;11.43;10.43;;;;;;;26.36;42.88;94819.62;827546;71;32820;-76
2021/08/15 00:16:43;;;;;;;11.03;10.10;;;;;;;;;;809372;72;33119;-78
2021/08/15 00:31:48;;;;;;;11.50;10.30;;;;;;;26.16;43.24;94817.07;793799;74;32958;-77
2021/08/15 01:01:13;;;;;;;10.33;9.43;;;;;;;26.04;44.17;94806.66;834106;71;30244;-77
2021/08/15 01:16:13;;;;;;;10.30;9.40;;;;;;;26.07;44.06;94808.58;833907;71;32021;-76
2021/08/15 02:01:25;;;;;;;10.73;9.80;;;;;;;25.77;43.86;94817.09;833845;71;33524;-78
2021/08/15 02:46:17;;;;;;;10.20;9.40;;;;;;;25.52;44.26;94806.78;827519;71;33256;-75
2021/08/15 03:16:08;;;;;;;10.87;9.97;;;;;;;25.53;44.22;94813.13;828611;71;29601;-76
2021/08/15 03:31:09;;;;;;;12.00;11.00;;;;;;;25.45;44.25;94825.56;834065;71;30397;-76
2021/08/15 03:46:15;;;;;;;11.10;10.20;;;;;;;25.41;44.34;94828.22;828117;71;32730;-77
2021/08/15 04:01:09;;;;;;;10.03;9.23;;;;;;;26.38;42.37;94817.90;834349;71;30021;-80
2021/08/15 04:16:09;;;;;;;10.27;9.47;;;;;;;26.92;41.46;94821.42;834121;71;30687;-75
2021/08/15 04:31:12;;;;;;;10.43;9.60;;;;;;;;;;829626;71;32172;-77
2021/08/15 04:46:09;;;;;;;10.23;9.43;;;;;;;27.74;39.82;88051.00;828539;71;29924;-78
2021/08/15 05:01:14;;;;;;;12.60;11.60;;;;;;;28.11;38.87;94834.72;833900;71;32673;-78
2021/08/15 05:16:59;;;;;;;11.30;10.30;;;;;;;26.88;41.11;93442.11;805281;69;33063;-79
2021/08/15 06:01:20;;;;;;;12.60;11.40;;;;;;;;;;828446;71;30393;-78
2021/08/15 06:16:18;;;;;;;12.60;11.60;;;;;;;27.42;40.26;123554.15;828058;71;29773;-76
2021/08/15 06:31:40;;;;;;;13.00;11.70;;;;;;;26.95;40.71;94838.77;816152;72;33281;-79
2021/08/15 07:02:02;;;;;;;12.57;11.47;;;;;;;18.38;41.07;93576.95;819372;69;33091;-78
2021/08/15 07:31:21;;;;;;;11.97;10.97;;;;;;;28.48;38.40;94827.38;834992;71;29945;-78
2021/08/15 07:32:26;;;;;;;12.70;11.60;;;;;;;28.51;38.34;94826.64;823057;72;26965;-76
2021/08/15 07:46:25;;;;;;;12.13;10.90;;;;;;;28.91;36.94;94825.00;793124;74;32970;-76
2021/08/15 08:01:39;;;;;;;11.87;10.73;;;;;;;28.89;37.09;94808.42;833820;71;32731;-76
2021/08/15 08:16:09;;;;;;;11.87;10.77;;;;;;;28.71;36.86;94806.64;828239;71;29916;-77
2021/08/15 08:31:16;;;;;;;10.77;9.97;;;;;;;29.19;36.32;94794.29;833963;71;32039;-76
2021/08/15 08:46:15;;;;;;;10.73;9.80;;;;;;;29.52;35.03;94773.89;833779;71;33245;-76
2021/08/15 09:16:22;;;;;;;9.43;8.73;;;;;;;30.28;31.51;94745.89;833916;71;29629;-76
2021/08/15 09:31:31;;;;;;;9.13;8.43;;;;;;;30.53;31.35;94738.77;834040;71;31976;-77
2021/08/15 09:46:24;;;;;;;9.93;9.13;;;;;;;30.54;30.88;94706.45;827528;71;32728;-77
2021/08/15 10:01:20;;;;;;;9.80;8.90;;;;;;;31.18;30.44;94697.05;834524;71;31894;-75
2021/08/15 10:16:18;;;;;;;9.50;8.80;;;;;;;30.75;30.95;94702.02;830997;70;29280;-77
2021/08/15 10:31:15;;;;;;;9.87;8.97;;;;;;;30.71;30.92;94674.81;828131;71;32129;-76
2021/08/15 10:46:11;;;;;;;9.70;8.93;;;;;;;30.65;30.78;94671.81;830107;71;29758;-76
2021/08/15 11:01:45;;;;;;;9.30;8.47;;;;;;;30.90;30.72;94641.60;820211;71;33303;-77
2021/08/15 11:16:31;;;;;;;9.13;8.37;;;;;;;31.67;29.83;94624.78;826943;71;32903;-78
2021/08/15 11:31:25;;;;;;;8.90;8.23;;;;;;;31.32;29.58;94614.05;821770;71;33324;-77
2021/08/15 11:46:21;;;;;;;8.70;8.00;;;;;;;32.24;28.83;94593.42;823877;71;32601;-77
2021/08/15 12:01:29;;;;;;;8.67;7.97;;;;;;;33.08;26.91;94571.84;825769;71;29875;-77
2021/08/15 12:16:13;;;;;;;9.10;8.40;;;;;;;32.62;26.69;94566.47;826276;71;29376;-77
2021/08/15 12:31:22;;;;;;;8.50;7.90;;;;;;;31.91;26.59;94549.97;819011;71;33470;-77
2021/08/15 12:46:28;;;;;;;9.30;8.50;;;;;;;32.64;26.79;94535.55;821742;71;33181;-78
2021/08/15 13:01:29;;;;;;;8.67;8.07;;;;;;;32.61;26.40;94532.95;820133;71;33342;-75
2021/08/15 13:16:26;;;;;;;8.77;8.07;;;;;;;32.96;26.19;94517.59;816260;71;32739;-81
2021/08/15 13:31:17;;;;;;;8.70;8.10;;;;;;;32.69;26.37;94513.29;828113;71;30352;-78
2021/08/15 13:46:15;;;;;;;8.97;8.27;;;;;;;32.11;26.75;94488.21;828248;71;30296;-76
2021/08/15 14:01:18;;;;;;;9.67;8.87;;;;;;;32.16;27.71;94472.58;833849;71;32825;-73
2021/08/15 14:16:30;;;;;;;8.90;8.23;;;;;;;31.90;27.30;94474.56;833762;71;33180;-77
2021/08/15 14:31:23;;;;;;;8.63;7.93;;;;;;;31.84;27.07;94466.77;828246;71;29262;-76
2021/08/15 14:46:22;;;;;;;7.53;7.00;;;;;;;31.80;26.90;94460.67;833979;71;30012;-75
2021/08/15 15:16:10;;;;;;;7.40;6.80;;;;;;;31.71;25.78;94445.00;821610;71;31026;-78
2021/08/15 15:31:09;;;;;;;7.30;6.70;;;;;;;31.20;26.42;94437.09;821626;71;30405;-78
2021/08/15 15:46:19;;;;;;;6.83;6.33;;;;;;;31.09;27.19;94427.25;820409;71;33303;-78
2021/08/15 16:01:15;;;;;;;7.17;6.67;;;;;;;30.99;26.52;94419.38;822352;71;32815;-76
2021/08/15 16:16:17;;;;;;;8.00;6.90;;;;;;;30.96;28.05;94404.69;826397;71;29577;-76
2021/08/15 16:31:16;;;;;;;7.13;6.53;;;;;;;30.56;27.20;94410.20;822210;71;32802;-75
2021/08/15 16:46:14;;;;;;;7.53;6.93;;;;;;;30.10;27.81;94390.20;820419;71;33373;-76
2021/08/15 17:01:23;;;;;;;7.17;6.67;;;;;;;29.84;29.18;94418.30;820131;71;32576;-76
2021/08/15 17:16:27;;;;;;;8.00;7.27;;;;;;;29.49;30.11;94421.77;825356;71;33272;-76
2021/08/15 17:31:28;;;;;;;8.07;7.47;;;;;;;29.12;32.04;94434.32;825303;71;33286;-75
2021/08/15 17:46:29;;;;;;;9.23;8.53;;;;;;;28.63;32.25;94443.84;828024;71;30060;-75
2021/08/15 18:01:12;;;;;;;9.90;9.00;;;;;;;28.13;33.47;94457.31;810664;71;29408;-76
2021/08/15 18:16:16;;;;;;;8.23;7.53;;;;;;;27.91;34.03;94475.64;827229;71;32697;-76
2021/08/15 18:31:22;;;;;;;9.10;8.27;;;;;;;;;;820712;71;30160;-75
2021/08/15 18:46:20;;;;;;;9.03;8.23;;;;;;;27.65;36.84;94511.45;821735;71;29762;-77
2021/08/15 19:01:37;;;;;;;8.47;7.70;;;;;;;;;;815633;71;32894;-79
2021/08/15 19:16:18;;;;;;;8.67;7.97;;;;;;;;;;820862;71;31288;-78
2021/08/15 19:31:14;;;;;;;9.70;8.80;;;;;;;27.43;35.96;123554.15;821447;71;30290;-76
2021/08/15 19:46:16;;;;;;;8.10;7.50;;;;;;;27.30;36.58;94516.53;821427;71;31917;-76
2021/08/15 20:01:09;;;;;;;9.40;8.60;;;;;;;27.13;36.46;94510.05;833943;71;29991;-75
2021/08/15 20:02:12;;;;;;;9.90;9.10;;;;;;;;;;821786;72;26701;-78
2021/08/15 20:16:31;;;;;;;9.87;9.07;;;;;;;27.29;37.15;94518.47;827668;71;33177;-76
2021/08/15 20:31:19;;;;;;;10.70;9.60;;;;;;;;;;828237;71;30219;-77
2021/08/15 20:46:42;;;;;;;11.03;9.93;;;;;;;;;;827504;71;32756;-76
2021/08/15 21:16:08;;;;;;;11.60;10.17;;;;;;;;;;828204;71;30129;-76
2021/08/15 21:31:09;;;;;;;9.60;8.80;;;;;;;25.95;40.35;94449.34;828067;71;30711;-76
